• Join FlightAware (Why Join?)
  • Login
  • US Flag 
Trick or treat! (Boo!!) 
03:55AM EDT


 

Airport Tracker/Info


-or-


 

Live Flight TrackerFlight Track Log ✈ DAL1979 ✈ 14-May-2013 ✈ KMCO - KMSP

Flight Track Log - Related Links

Times and Time Zones

All times are in EDT time to prevent confusion due to time zone crossing. See the DAL1979 flight status page for this flight to view local times or setup timezone preferences in your user account.

Time Position Orientation Groundspeed Altitude Reporting Facility
EDT Latitude Longitude Course Direction KTS MPH feet Rate Location/Type
03:59PM 28.4360 -81.3220 355° North 181 208  Level FlightAware
04:00PM 28.4750 -81.3210 North 195 224 1,700 2,220 Climbing FlightAware
04:00PM 28.5040 -81.3190 North 211 243 2,800 2,580 Climbing FlightAware
04:01PM 28.5370 -81.3180 North 230 265 4,300 2,940 Climbing FlightAware
04:01PM 28.5630 -81.3240 349° North 247 284 5,500 2,820 Climbing FlightAware
04:01PM 28.5750 -81.3400 311° West 260 299 6,200 3,120 Climbing FlightAware
04:02PM 28.5790 -81.3520 291° West 259 298 6,800 3,600 Climbing FlightAware
04:02PM 28.5770 -81.3930 267° West 257 296 8,600 3,120 Climbing FlightAware
04:02PM 28.5750 -81.4070 261° West 269 310 8,900 1,440 Climbing FlightAware
04:03PM 28.5670 -81.4580 260° West 314 361 9,700 1,560 Climbing FlightAware
04:03PM 28.5590 -81.5110 260° West 344 396 10,600 2,400 Climbing FlightAware
04:04PM 28.5420 -81.6150 259° West 366 421 13,100 2,460 Climbing FlightAware
04:05PM 28.5330 -81.6900 262° West 386 444 14,500 2,400 Climbing FlightAware
04:06PM 28.5230 -81.7730 262° West 396 456 16,300 3,000 Climbing FlightAware
04:06PM 28.5120 -81.8680 263° West 405 466 18,800 3,240 Climbing FlightAware
04:07PM 28.5010 -81.9550 262° West 412 474 20,900 2,760 Climbing FlightAware
04:08PM 28.5050 -82.0340 273° West 419 482 22,500 2,280 Climbing FlightAware
04:09PM 28.5470 -82.1670 290° West 437 503 24,700 2,160 Climbing FlightAware
04:09PM 28.5730 -82.2570 288° West 450 518 26,100 1,620 Climbing FlightAware
04:10PM 28.5990 -82.3500 288° West 470 541 26,900 1,680 Climbing FlightAware
04:11PM 28.6290 -82.4570 288° West 468 539 28,500 2,100 Climbing FlightAware
04:11PM 28.6610 -82.5450 293° West 465 535 29,900 1,020 Climbing FlightAware
04:12PM 28.7270 -82.6250 313° West 473 544 30,000 60 Climbing FlightAware
04:13PM 28.7950 -82.6820 324° Northwest 470 541 30,000  Level FlightAware
04:13PM 28.8630 -82.7380 324° Northwest 468 539 30,000  Level FlightAware
04:14PM 28.9370 -82.7990 324° Northwest 465 535 30,000  Level FlightAware
04:15PM 29.0100 -82.8580 325° Northwest 462 532 30,000  Level FlightAware
04:15PM 29.0730 -82.9110 324° Northwest 461 531 30,000  Level FlightAware
04:16PM 29.1450 -82.9710 324° Northwest 461 531 30,000  Level FlightAware
04:17PM 29.2360 -83.0450 325° Northwest 459 528 30,000  Level FlightAware
04:18PM 29.3130 -83.1090 324° Northwest 458 527 30,000  Level FlightAware
04:18PM 29.3820 -83.1710 322° Northwest 458 527 30,000  Level FlightAware
04:19PM 29.4520 -83.2270 325° Northwest 461 531 30,000  Level FlightAware
04:20PM 29.5310 -83.2870 327° Northwest 455 524 30,000  Level FlightAware
04:20PM 29.6020 -83.3450 325° Northwest 461 531 30,000  Level FlightAware
04:21PM 29.6700 -83.4020 324° Northwest 462 532 30,000  Level FlightAware
04:22PM 29.7490 -83.4690 324° Northwest 462 532 30,000  Level FlightAware
04:23PM 29.8180 -83.5260 324° Northwest 461 531 30,000  Level FlightAware
04:23PM 29.8770 -83.5760 324° Northwest 462 532 30,000  Level FlightAware
04:24PM 29.9350 -83.6250 324° Northwest 462 532 30,000  Level FlightAware
04:25PM 30.0090 -83.6870 324° Northwest 462 532 30,000  Level FlightAware
04:25PM 30.0680 -83.7360 324° Northwest 462 532 30,000  Level FlightAware
04:26PM 30.1260 -83.7850 324° Northwest 462 532 30,000  Level FlightAware
04:26PM 30.8620 -84.0090 345° North 30,000  Level FlightAware
04:27PM 30.2880 -83.8780 169° South 462 532 30,000  Level FlightAware
04:28PM 30.3770 -83.9310 333° Northwest 464 534 30,000  Level FlightAware
04:28PM 30.4430 -83.9720 332° Northwest 464 534 30,000  Level FlightAware
04:29PM 30.5390 -84.0310 332° Northwest 465 535 30,000  Level FlightAware
04:30PM 30.6080 -84.0720 333° Northwest 464 534 30,000  Level FlightAware
04:30PM 30.6870 -84.1180 333° Northwest 465 535 30,000  Level FlightAware
04:31PM 30.8050 -84.1880 333° Northwest 464 534 30,000  Level FlightAware
04:32PM 30.9050 -84.2470 333° Northwest 464 534 30,000  Level FlightAware
04:33PM 31.0180 -84.3150 333° Northwest 463 533 30,000  Level FlightAware
04:34PM 30.9580 -84.2780 152° Southeast 461 531 30,000  Level FlightAware
04:35PM 31.0330 -84.3250 332° Northwest 461 531 30,000  Level FlightAware
04:35PM 31.0970 -84.3650 332° Northwest 461 531 30,000  Level FlightAware
04:36PM 31.3390 -84.5050 334° Northwest 461 531 30,000  Level FlightAware
04:37PM 31.4150 -84.5520 332° Northwest 461 531 30,000  Level FlightAware
04:38PM 31.4790 -84.5920 332° Northwest 461 531 30,000  Level FlightAware
04:38PM 31.5430 -84.6320 332° Northwest 461 531 30,000  Level FlightAware
04:39PM 31.6070 -84.6720 332° Northwest 461 531 30,000  Level FlightAware
04:40PM 31.6710 -84.7120 332° Northwest 461 531 30,000  Level FlightAware
04:40PM 31.7350 -84.7520 332° Northwest 461 531 30,000  Level FlightAware
04:41PM 31.8150 -84.8020 332° Northwest 461 531 30,000  Level FlightAware
04:42PM 31.8790 -84.8420 332° Northwest 461 531 30,000  Level FlightAware
04:42PM 31.9430 -84.8820 332° Northwest 461 531 30,000  Level FlightAware
04:43PM 32.0070 -84.9220 332° Northwest 461 531 30,000  Level FlightAware
04:44PM 32.0870 -84.9720 332° Northwest 461 531 30,000  Level FlightAware
04:45PM 32.1510 -85.0120 332° Northwest 461 531 30,000  Level FlightAware
04:45PM 32.2150 -85.0530 332° Northwest 461 531 30,000  Level FlightAware
04:46PM 32.2790 -85.0930 332° Northwest 461 531 30,000  Level FlightAware
04:47PM 32.5530 -85.2410 336° Northwest 30,000  Level FlightAware
04:47PM 32.6310 -85.2900 332° Northwest 456 525 30,000  Level FlightAware
04:48PM 32.7100 -85.3400 332° Northwest 456 525 30,000  Level FlightAware
04:49PM 32.8560 -85.4290 333° Northwest 30,000  Level FlightAware
04:50PM 32.9430 -85.4830 332° Northwest 455 524 30,000  Level FlightAware
04:51PM 33.0160 -85.5310 331° Northwest 455 524 30,000  Level FlightAware
04:51PM 33.0910 -85.5750 334° Northwest 30,000  Level FlightAware
04:52PM 33.2078 -85.6478 334° Northwest 458 527 30,000  Level Atlanta Center
04:53PM 33.3236 -85.7219 332° Northwest 458 527 30,000  Level Atlanta Center
04:54PM 33.4269 -85.7911 331° Northwest 467 537 30,000  Level Atlanta Center
04:55PM 33.5511 -85.8633 334° Northwest 459 528 30,000  Level Atlanta Center
04:56PM 33.6669 -85.9333 333° Northwest 459 528 30,000  Level Atlanta Center
04:57PM 33.7806 -86.0083 331° Northwest 459 528 30,000  Level Atlanta Center
04:58PM 33.8964 -86.0786 333° Northwest 459 528 30,000 540 Level Atlanta Center
05:04PM 34.5620 -86.5100 333° Northwest 460 529 34,000 600 Climbing FlightAware
05:05PM 34.6310 -86.5560 331° Northwest 460 529 34,000  Level FlightAware
05:06PM 34.6950 -86.5990 331° Northwest 460 529 34,000  Level FlightAware
05:06PM 34.7557 -86.6359 333° Northwest 462 532 34,000  Level FlightAware ADS-B
05:07PM 34.8283 -86.6833 332° Northwest 461 531 34,000  Level FlightAware ADS-B
05:07PM 34.8952 -86.7269 332° Northwest 461 531 34,000  Level FlightAware ADS-B
05:08PM 34.9517 -86.7638 332° Northwest 459 528 34,000  Level FlightAware ADS-B
05:08PM 35.0091 -86.8016 332° Northwest 459 528 34,000  Level FlightAware ADS-B
05:09PM 35.0655 -86.8384 332° Northwest 457 526 34,000  Level FlightAware ADS-B
05:09PM 35.1256 -86.8778 332° Northwest 456 525 34,000  Level FlightAware ADS-B
05:10PM 35.1950 -86.9236 332° Northwest 455 524 34,000  Level FlightAware ADS-B
05:10PM 35.2528 -86.9617 332° Northwest 455 524 34,000  Level FlightAware ADS-B
05:11PM 35.3091 -86.9989 332° Northwest 454 522 34,000  Level FlightAware ADS-B
05:11PM 35.3540 -87.0300 331° Northwest 453 521 34,000  Level FlightAware
05:12PM 35.4418 -87.0868 332° Northwest 454 522 34,000  Level FlightAware ADS-B
05:15PM 35.7250 -87.2760 332° Northwest 454 522 34,000  Level FlightAware
05:15PM 35.7990 -87.3260 331° Northwest 454 522 34,000  Level FlightAware
05:16PM 35.8620 -87.3690 331° Northwest 454 522 34,000  Level FlightAware
05:17PM 35.9510 -87.4280 332° Northwest 454 522 34,000  Level FlightAware
05:17PM 36.0130 -87.4700 331° Northwest 454 522 34,000  Level FlightAware
05:18PM 36.1350 -87.5520 332° Northwest 455 524 34,000  Level FlightAware
05:19PM 36.1970 -87.5940 331° Northwest 455 524 34,000  Level FlightAware
05:20PM 36.2600 -87.6380 331° Northwest 455 524 34,000  Level FlightAware
05:20PM 36.3230 -87.6810 331° Northwest 455 524 34,000  Level FlightAware
05:21PM 36.3850 -87.7240 331° Northwest 455 524 34,000  Level FlightAware
05:22PM 36.4630 -87.7780 331° Northwest 455 524 34,000  Level FlightAware
05:23PM 36.5260 -87.8210 331° Northwest 455 524 34,000  Level FlightAware
05:23PM 36.5890 -87.8640 331° Northwest 455 524 34,000  Level FlightAware
05:24PM 36.6510 -87.9070 331° Northwest 455 524 34,000  Level FlightAware
05:25PM 36.7140 -87.9500 331° Northwest 455 524 34,000  Level FlightAware
05:25PM 36.7920 -88.0050 331° Northwest 455 524 34,000  Level FlightAware
05:26PM 36.9940 -88.1410 332° Northwest 454 522 34,000  Level FlightAware
05:27PM 37.0890 -88.2080 331° Northwest 454 522 34,000  Level FlightAware
05:28PM 37.1510 -88.2520 331° Northwest 454 522 34,000  Level FlightAware
05:29PM 37.2600 -88.3260 332° Northwest 454 522 34,000  Level FlightAware
05:29PM 37.3340 -88.3770 331° Northwest 454 522 34,000  Level FlightAware
05:30PM 37.4090 -88.4300 331° Northwest 454 522 34,000  Level FlightAware
05:31PM 37.4890 -88.4870 331° Northwest 454 522 34,000  Level FlightAware
05:31PM 37.5640 -88.5430 329° Northwest 451 519 34,000  Level FlightAware
05:32PM 37.6280 -88.6220 316° Northwest 449 517 34,000  Level FlightAware
05:33PM 37.6880 -88.6990 315° West 449 517 34,000  Level FlightAware
05:33PM 37.7420 -88.7670 315° West 449 517 34,000  Level FlightAware
05:34PM 37.8150 -88.8590 315° West 449 517 34,000  Level FlightAware
05:35PM 37.8720 -88.9260 317° Northwest 451 519 34,000  Level FlightAware
05:36PM 37.9550 -88.9910 328° Northwest 453 521 34,000  Level FlightAware
05:36PM 38.0280 -89.0420 331° Northwest 452 520 34,000  Level FlightAware
05:37PM 38.1110 -89.0980 332° Northwest 452 520 34,000  Level FlightAware
05:38PM 38.1830 -89.1480 331° Northwest 451 519 34,000  Level FlightAware
05:38PM 38.2510 -89.1950 332° Northwest 450 518 34,000  Level FlightAware
05:39PM 38.3350 -89.2540 331° Northwest 450 518 34,000  Level FlightAware
05:40PM 38.4090 -89.3040 332° Northwest 451 519 34,000  Level FlightAware
05:40PM 38.4850 -89.3580 331° Northwest 451 519 34,000  Level FlightAware
05:41PM 38.5970 -89.4350 332° Northwest 452 520 34,000  Level FlightAware
05:42PM 38.6480 -89.4710 331° Northwest 453 521 34,000  Level FlightAware
05:43PM 38.7390 -89.5350 331° Northwest 453 521 34,000  Level FlightAware
05:43PM 38.8210 -89.5920 332° Northwest 452 520 34,000  Level FlightAware
05:44PM 38.8850 -89.6380 331° Northwest 452 520 34,000  Level FlightAware
05:45PM 38.9840 -89.7070 332° Northwest 451 519 34,000  Level FlightAware
05:45PM 39.0310 -89.7410 331° Northwest 450 518 34,000  Level FlightAware
05:46PM 39.1360 -89.8160 331° Northwest 450 518 34,000  Level FlightAware
05:47PM 39.2020 -89.8630 331° Northwest 450 518 34,000  Level FlightAware
05:48PM 39.2640 -89.9070 331° Northwest 450 518 34,000  Level FlightAware
05:48PM 39.3640 -89.9790 331° Northwest 449 517 34,000  Level FlightAware
05:49PM 39.4410 -90.0330 332° Northwest 449 517 34,000  Level FlightAware
05:50PM 39.5180 -90.0890 331° Northwest 449 517 34,000  Level FlightAware
05:50PM 39.5880 -90.1400 331° Northwest 449 517 34,000  Level FlightAware
05:51PM 39.6570 -90.1910 330° Northwest 449 517 34,000  Level FlightAware
05:52PM 39.7370 -90.2480 331° Northwest 448 516 34,000  Level FlightAware
05:53PM 39.8070 -90.3000 330° Northwest 448 516 34,000  Level FlightAware
05:53PM 39.8930 -90.3620 331° Northwest 449 517 34,000  Level FlightAware
05:54PM 39.9680 -90.4170 331° Northwest 449 517 34,000  Level FlightAware
05:55PM 40.0460 -90.4740 331° Northwest 449 517 34,000  Level FlightAware
05:55PM 40.1140 -90.5250 330° Northwest 449 517 34,000  Level FlightAware
05:56PM 40.1960 -90.5850 331° Northwest 449 517 34,000  Level FlightAware
05:57PM 40.2690 -90.6390 331° Northwest 448 516 34,000  Level FlightAware
05:57PM 40.3530 -90.7010 331° Northwest 448 516 34,000  Level FlightAware
05:58PM 40.4240 -90.7550 330° Northwest 448 516 34,000  Level FlightAware
05:59PM 40.5040 -90.8140 331° Northwest 448 516 34,000  Level FlightAware
06:00PM 40.5800 -90.8710 330° Northwest 448 516 34,000  Level FlightAware
06:00PM 40.6520 -90.9250 330° Northwest 448 516 34,000  Level FlightAware
06:01PM 40.7340 -90.9870 330° Northwest 448 516 34,000  Level FlightAware
06:02PM 40.8030 -91.0390 330° Northwest 447 514 34,000  Level FlightAware
06:02PM 40.8850 -91.1010 330° Northwest 447 514 34,000  Level FlightAware
06:03PM 40.9580 -91.1560 330° Northwest 446 513 34,000  Level FlightAware
06:04PM 41.0360 -91.2160 330° Northwest 445 512 34,000  Level FlightAware
06:04PM 41.1050 -91.2680 330° Northwest 447 514 34,000  Level FlightAware
06:05PM 41.1810 -91.3260 330° Northwest 454 522 34,000  Level FlightAware
06:06PM 41.2530 -91.3820 330° Northwest 456 525 34,000  Level FlightAware
06:07PM 41.3340 -91.4440 330° Northwest 456 525 34,000  Level FlightAware
06:07PM 41.4170 -91.5080 330° Northwest 454 522 34,000  Level FlightAware
06:08PM 41.4930 -91.5670 330° Northwest 453 521 34,000  Level FlightAware
06:09PM 41.5640 -91.6220 330° Northwest 453 521 34,000  Level FlightAware
06:09PM 41.6390 -91.6790 330° Northwest 451 519 34,000  Level FlightAware
06:10PM 41.7550 -91.7700 330° Northwest 449 517 34,000  Level FlightAware
06:11PM 41.8380 -91.8350 330° Northwest 448 516 34,000  Level FlightAware
06:12PM 41.9090 -91.8900 330° Northwest 446 513 34,000  Level FlightAware
06:13PM 41.9890 -91.9530 330° Northwest 427 491 34,000  Level FlightAware
06:13PM 42.0560 -92.0060 330° Northwest 414 476 34,000  Level FlightAware
06:14PM 42.1210 -92.0790 320° Northwest 399 459 34,000  Level FlightAware
06:15PM 42.1760 -92.1490 317° Northwest 396 456 34,000  Level FlightAware
06:15PM 42.2390 -92.2260 318° Northwest 407 468 34,000  Level FlightAware
06:16PM 42.2940 -92.2920 318° Northwest 410 472 34,000  Level FlightAware
06:17PM 42.3490 -92.3580 318° Northwest 413 475 34,000  Level FlightAware
06:18PM 42.4170 -92.4380 319° Northwest 414 476 34,000  Level FlightAware
06:18PM 42.4730 -92.5060 318° Northwest 414 476 34,000  Level FlightAware
06:19PM 42.5310 -92.5760 318° Northwest 410 472 34,000  Level FlightAware
06:20PM 42.5950 -92.6520 319° Northwest 393 452 34,000  Level FlightAware
06:20PM 42.6490 -92.7180 318° Northwest 386 444 34,000  Level FlightAware
06:21PM 42.7060 -92.7870 318° Northwest 389 448 34,000  Level FlightAware
06:22PM 42.7620 -92.8530 319° Northwest 392 451 34,000  Level FlightAware
06:22PM 42.8260 -92.9280 319° Northwest 395 455 34,000  Level FlightAware
06:23PM 42.8810 -92.9930 319° Northwest 395 455 34,000 -480 Level FlightAware
06:24PM 42.9370 -93.0580 320° Northwest 400 460 33,400 -960 Descending FlightAware
06:25PM 43.0100 -93.1030 336° Northwest 414 476 32,700 -1,020 Descending FlightAware
06:25PM 43.0880 -93.1170 353° North 422 486 32,000 -1,680 Descending FlightAware
06:26PM 43.1830 -93.1280 355° North 441 507 30,400 -2,640 Descending FlightAware
06:27PM 43.2600 -93.1350 356° North 431 496 28,300 -3,240 Descending FlightAware
06:27PM 43.3440 -93.1420 357° North 417 480 26,100 -2,640 Descending FlightAware
06:28PM 43.4270 -93.1490 356° North 406 467 24,600 -2,100 Descending FlightAware
06:29PM 43.5000 -93.1560 356° North 397 457 23,200 -2,160 Descending FlightAware
06:29PM 43.5800 -93.1630 356° North 385 443 21,600 -2,100 Descending FlightAware
06:30PM 43.6420 -93.1680 357° North 377 434 20,400 -2,100 Descending FlightAware
06:31PM 43.7240 -93.1760 356° North 367 422 18,800 -1,800 Descending FlightAware
06:31PM 43.7900 -93.1810 357° North 356 410 17,900 -1,800 Descending FlightAware
06:32PM 43.8670 -93.1880 356° North 374 430 16,300 -2,160 Descending FlightAware
06:33PM 43.9450 -93.1950 356° North 368 423 14,700 -2,160 Descending FlightAware
06:34PM 44.0130 -93.2010 356° North 361 415 13,300 -2,040 Descending FlightAware
06:34PM 44.0790 -93.2070 356° North 356 410 12,000 -1,740 Descending FlightAware
06:35PM 44.1500 -93.2130 357° North 343 395 10,900 -1,020 Descending FlightAware
06:36PM 44.2120 -93.2190 356° North 310 357 10,600 -300 Descending FlightAware
06:36PM 44.2740 -93.2170 North 304 350 10,500 -120 Descending FlightAware
06:37PM 44.3320 -93.2110 North 303 349 10,500 -120 Level FlightAware
06:38PM 44.3850 -93.2050 North 298 343 10,400 -780 Descending FlightAware
06:39PM 44.4460 -93.2030 North 284 327 9,400 -1,320 Descending FlightAware
06:39PM 44.4800 -93.2020 North 274 315 8,900 -1,200 Descending FlightAware
06:39PM 44.5170 -93.2000 North 260 299 8,300 -1,440 Descending FlightAware
06:40PM 44.5530 -93.1990 North 253 291 7,500 -1,560 Descending FlightAware
06:40PM 44.5790 -93.1980 North 250 288 6,900 -1,320 Descending FlightAware
06:41PM 44.6150 -93.1960 North 237 273 6,300 -1,140 Descending FlightAware
06:41PM 44.6430 -93.1950 North 219 252 5,900 -1,020 Descending FlightAware
06:42PM 44.6710 -93.1940 North 195 224 5,400 -1,140 Descending FlightAware
06:42PM 44.6920 -93.1930 North 180 207 4,900 -1,200 Descending FlightAware
06:42PM 44.7050 -93.1930 360° North 171 197 4,600 -1,020 Descending FlightAware
06:43PM 44.7160 -93.1940 356° North 160 184 4,400 -1,200 Descending FlightAware
06:43PM 44.7350 -93.1990 349° North 153 176 3,800 -1,200 Descending FlightAware
06:44PM 44.7560 -93.2050 349° North 163 188 3,300 -840 Descending FlightAware
06:44PM 44.7780 -93.2100 351° North 160 184 3,000 -780 Descending FlightAware
06:45PM 44.7960 -93.2150 349° North 162 186 2,600 -900 Descending FlightAware
06:45PM 44.8170 -93.2200 350° North 149 171 2,200 -780 Descending FlightAware
06:45PM 44.8350 -93.2240 351° North 149 171 1,900 -660 Descending FlightAware
06:46PM 44.8560 -93.2300 349° North 161 185 1,600 -600 Descending FlightAware